createdAt,value
2022-10-17T00:02:03.702Z,1.88
2022-10-17T00:04:30.469Z,1.95
2022-10-17T00:06:57.210Z,1.90
2022-10-17T00:09:23.948Z,1.67
2022-10-17T00:11:50.633Z,1.70
2022-10-17T00:14:17.314Z,1.88
2022-10-17T00:16:44.106Z,1.83
2022-10-17T00:19:10.770Z,1.92
2022-10-17T00:21:37.517Z,1.60
2022-10-17T00:24:04.548Z,2.03
2022-10-17T00:26:31.300Z,2.17
2022-10-17T00:28:58.075Z,2.00
2022-10-17T00:31:25.380Z,2.30
2022-10-17T00:33:52.790Z,2.38
2022-10-17T00:36:25.201Z,1.95
2022-10-17T00:38:57.631Z,2.50
2022-10-17T00:41:27.419Z,1.90
2022-10-17T00:43:54.059Z,2.05
2022-10-17T00:46:22.759Z,2.22
2022-10-17T00:48:52.562Z,3.20
2022-10-17T00:51:22.780Z,2.72
2022-10-17T00:53:51.731Z,2.28
2022-10-17T00:56:20.516Z,2.08
2022-10-17T00:58:47.691Z,2.30
2022-10-17T01:01:14.918Z,2.55
2022-10-17T01:03:42.857Z,2.35
2022-10-17T01:06:09.576Z,2.10
2022-10-17T01:08:36.566Z,1.95
2022-10-17T01:11:51.827Z,2.75
2022-10-17T01:14:37.099Z,2.28
2022-10-17T01:17:40.867Z,4.57
2022-10-17T01:20:41.055Z,2.33
2022-10-17T01:23:25.941Z,2.10
2022-10-17T01:26:00.100Z,2.67
2022-10-17T01:28:55.301Z,2.45
2022-10-17T01:31:27.859Z,2.50
2022-10-17T01:34:01.090Z,2.55
2022-10-17T01:36:39.837Z,2.58
2022-10-17T01:39:43.944Z,2.45
2022-10-17T01:42:23.651Z,2.53
2022-10-17T01:45:35.570Z,2.40
2022-10-17T01:48:08.866Z,2.50
2022-10-17T01:50:41.432Z,3.00
2022-10-17T01:53:14.268Z,2.67
2022-10-17T01:55:44.473Z,3.35
2022-10-17T01:58:20.304Z,2.63
2022-10-17T02:00:48.752Z,3.15
2022-10-17T02:03:18.800Z,3.13
2022-10-17T02:05:45.998Z,3.20
2022-10-17T02:08:13.063Z,3.10
2022-10-17T02:10:53.597Z,2.30
2022-10-17T02:13:31.681Z,2.97
2022-10-17T02:16:10.429Z,2.63
2022-10-17T02:19:03.597Z,2.97
2022-10-17T02:21:58.223Z,3.00
2022-10-17T02:24:46.446Z,3.10
2022-10-17T02:27:17.651Z,3.38
2022-10-17T02:29:49.306Z,3.38
2022-10-17T02:32:33.145Z,2.97
2022-10-17T02:35:02.390Z,3.05
2022-10-17T02:37:31.330Z,3.35
2022-10-17T02:40:00.958Z,3.05
2022-10-17T02:42:29.441Z,3.63
2022-10-17T02:45:01.084Z,3.30
2022-10-17T02:47:37.848Z,2.97
2022-10-17T02:50:05.758Z,3.50
2022-10-17T02:52:50.919Z,3.60
2022-10-17T02:55:23.034Z,3.33
2022-10-17T02:58:10.567Z,3.63
2022-10-17T03:00:40.602Z,3.17
2022-10-17T03:03:26.130Z,3.75
2022-10-17T03:05:53.918Z,3.10
2022-10-17T03:08:24.024Z,3.70
2022-10-17T03:10:51.394Z,3.53
2022-10-17T03:13:19.174Z,3.30
2022-10-17T03:15:46.217Z,3.92
2022-10-17T03:18:13.610Z,3.58
2022-10-17T03:20:40.302Z,4.40
2022-10-17T03:23:07.001Z,3.67
2022-10-17T03:25:33.921Z,4.75
2022-10-17T03:28:01.576Z,3.88
2022-10-17T03:30:29.128Z,3.42
2022-10-17T03:32:58.433Z,3.80
2022-10-17T03:35:26.402Z,4.07
2022-10-17T03:37:55.488Z,4.13
2022-10-17T03:40:23.531Z,4.05
2022-10-17T03:42:50.864Z,4.30
2022-10-17T03:45:17.995Z,4.00
2022-10-17T03:47:46.067Z,4.10
2022-10-17T03:50:12.864Z,4.30
2022-10-17T03:52:40.340Z,3.88
2022-10-17T03:55:08.675Z,4.43
2022-10-17T03:57:36.970Z,4.35
2022-10-17T04:00:06.216Z,4.25
2022-10-17T04:02:41.136Z,4.50
2022-10-17T04:05:11.080Z,4.75
2022-10-17T04:07:37.861Z,4.63
2022-10-17T04:10:05.949Z,4.18
2022-10-17T04:12:32.913Z,5.10
2022-10-17T04:14:59.923Z,5.00
2022-10-17T04:17:26.929Z,4.68
2022-10-17T04:19:53.647Z,4.60
2022-10-17T04:22:20.372Z,4.80
2022-10-17T04:24:47.130Z,4.47
2022-10-17T04:27:39.732Z,5.35
2022-10-17T04:30:07.538Z,5.00
2022-10-17T04:32:40.963Z,5.10
2022-10-17T04:35:12.806Z,4.55
2022-10-17T04:37:43.677Z,5.28
2022-10-17T04:40:16.790Z,4.50
2022-10-17T04:42:43.709Z,4.68
2022-10-17T04:45:13.381Z,4.85
2022-10-17T04:47:41.142Z,4.82
2022-10-17T04:50:08.149Z,4.88
2022-10-17T04:52:37.456Z,4.90
2022-10-17T04:55:06.310Z,4.63
2022-10-17T04:57:36.814Z,4.80
2022-10-17T05:00:11.864Z,4.90
2022-10-17T05:03:01.415Z,4.97
2022-10-17T05:05:29.428Z,5.28
2022-10-17T05:07:57.128Z,4.75
2022-10-17T05:10:26.868Z,5.00
2022-10-17T05:12:54.743Z,5.40
2022-10-17T05:15:24.092Z,5.38
2022-10-17T05:17:56.918Z,5.20
2022-10-17T05:20:25.858Z,4.75
2022-10-17T05:22:52.846Z,4.85
2022-10-17T05:25:21.814Z,5.00
2022-10-17T05:27:49.628Z,5.00
2022-10-17T05:30:17.747Z,5.25
2022-10-17T05:32:44.693Z,5.13
2022-10-17T05:35:11.440Z,5.28
2022-10-17T05:37:39.411Z,4.85
2022-10-17T05:40:07.263Z,4.78
2022-10-17T05:42:34.514Z,5.50
2022-10-17T05:45:01.995Z,5.15
2022-10-17T05:47:30.026Z,4.90
2022-10-17T05:49:57.004Z,5.13
2022-10-17T05:52:30.910Z,5.88
2022-10-17T05:55:16.305Z,5.45
2022-10-17T05:57:44.366Z,5.05
2022-10-17T06:00:15.203Z,5.13
2022-10-17T06:02:42.728Z,5.68
2022-10-17T06:05:12.147Z,5.03
2022-10-17T06:07:39.028Z,5.40
2022-10-17T06:10:06.738Z,5.03
2022-10-17T06:12:33.503Z,5.20
2022-10-17T06:15:00.258Z,5.03
2022-10-17T06:17:28.114Z,5.28
2022-10-17T06:19:54.763Z,5.43
2022-10-17T06:22:24.635Z,5.10
2022-10-17T06:24:53.020Z,5.43
2022-10-17T06:27:20.311Z,4.85
2022-10-17T06:29:47.877Z,4.70
2022-10-17T06:32:15.260Z,4.88
2022-10-17T06:34:53.383Z,4.50
2022-10-17T06:37:20.182Z,4.60
2022-10-17T06:39:47.995Z,4.40
2022-10-17T06:42:21.224Z,4.82
2022-10-17T06:44:59.672Z,4.03
2022-10-17T06:47:38.234Z,5.55
2022-10-17T06:50:18.207Z,3.90
2022-10-17T06:52:58.969Z,4.15
2022-10-17T06:56:02.768Z,3.95
2022-10-17T06:58:55.660Z,4.25
2022-10-17T07:01:31.227Z,4.97
2022-10-17T07:04:00.094Z,5.38
2022-10-17T07:06:28.540Z,5.28
2022-10-17T07:08:58.341Z,4.18
2022-10-17T07:11:25.790Z,4.15
2022-10-17T07:13:52.637Z,3.35
2022-10-17T07:16:21.226Z,3.35
2022-10-17T07:18:52.332Z,3.67
2022-10-17T07:21:19.942Z,3.05
2022-10-17T07:23:46.730Z,3.42
2022-10-17T07:26:16.026Z,3.03
2022-10-17T07:28:45.756Z,5.35
2022-10-17T07:31:23.678Z,3.30
2022-10-17T07:33:51.474Z,4.03
2022-10-17T07:36:18.777Z,4.07
2022-10-17T07:38:46.339Z,3.63
2022-10-17T07:41:16.552Z,3.63
2022-10-17T07:43:46.744Z,3.40
2022-10-17T07:46:15.810Z,3.20
2022-10-17T07:48:42.635Z,3.08
2022-10-17T07:51:10.192Z,2.83
2022-10-17T07:53:38.552Z,2.88
2022-10-17T07:56:09.423Z,2.92
2022-10-17T07:58:37.725Z,2.80
2022-10-17T08:01:10.685Z,2.65
2022-10-17T08:03:45.412Z,2.90
2022-10-17T08:06:13.008Z,3.35
2022-10-17T08:08:40.100Z,2.60
2022-10-17T08:11:09.381Z,3.40
2022-10-17T08:13:36.997Z,3.80
2022-10-17T08:16:07.209Z,2.83
2022-10-17T08:18:35.088Z,2.45
2022-10-17T08:21:06.097Z,3.00
2022-10-17T08:23:32.992Z,2.50
2022-10-17T08:26:01.147Z,2.60
2022-10-17T08:28:28.596Z,2.72
2022-10-17T08:31:05.918Z,2.90
2022-10-17T08:33:33.300Z,3.08
2022-10-17T08:36:01.400Z,3.15
2022-10-17T08:38:35.064Z,4.20
2022-10-17T08:41:07.084Z,2.10
2022-10-17T08:43:48.758Z,2.58
2022-10-17T08:48:49.436Z,2.78
2022-10-17T08:51:21.296Z,2.40
2022-10-17T08:54:11.763Z,2.50
2022-10-17T08:56:49.897Z,2.35
2022-10-17T08:59:46.095Z,2.72
2022-10-17T09:02:28.131Z,2.67
2022-10-17T09:05:26.587Z,2.45
2022-10-17T09:08:18.633Z,1.90
2022-10-17T09:11:04.001Z,1.58
2022-10-17T09:13:55.171Z,1.85
2022-10-17T09:16:33.628Z,1.95
2022-10-17T09:19:15.151Z,2.78
2022-10-17T09:21:51.015Z,1.63
2022-10-17T09:24:31.164Z,1.92
2022-10-17T09:26:58.045Z,2.40
2022-10-17T09:29:32.356Z,1.58
2022-10-17T09:32:04.638Z,1.77
2022-10-17T09:34:33.347Z,1.50
2022-10-17T09:37:02.051Z,1.92
2022-10-17T09:39:32.098Z,1.83
2022-10-17T09:42:03.143Z,2.13
2022-10-17T09:44:36.533Z,2.05
2022-10-17T09:47:15.192Z,2.17
2022-10-17T09:49:45.094Z,1.70
2022-10-17T09:52:26.787Z,2.20
2022-10-17T09:54:59.831Z,2.30
2022-10-17T09:57:26.674Z,1.77
2022-10-17T10:00:00.087Z,1.85
2022-10-17T10:02:29.562Z,2.58
2022-10-17T10:05:20.532Z,1.60
2022-10-17T10:08:06.281Z,1.80
2022-10-17T10:10:33.660Z,1.77
2022-10-17T10:13:14.076Z,1.52
2022-10-17T10:15:46.208Z,1.83
2022-10-17T10:18:25.273Z,1.50
2022-10-17T10:21:09.306Z,1.38
2022-10-17T10:23:40.143Z,1.38
2022-10-17T10:26:45.693Z,1.80
2022-10-17T10:29:32.460Z,1.60
2022-10-17T10:32:21.840Z,1.50
2022-10-17T10:34:54.640Z,1.40
2022-10-17T10:37:35.179Z,1.67
2022-10-17T10:40:05.106Z,1.33
2022-10-17T10:42:37.474Z,1.33
2022-10-17T10:45:29.409Z,1.70
2022-10-17T10:48:24.709Z,1.95
2022-10-17T10:51:21.344Z,1.65
2022-10-17T10:54:01.577Z,1.67
2022-10-17T10:56:40.530Z,3.17
2022-10-17T10:59:10.078Z,1.90
2022-10-17T11:02:02.240Z,1.70
2022-10-17T11:05:07.078Z,1.60
2022-10-17T11:07:50.018Z,1.52
2022-10-17T11:10:57.367Z,2.15
2022-10-17T11:13:29.033Z,1.75
2022-10-17T11:16:15.555Z,1.77
2022-10-17T11:18:50.259Z,2.03
2022-10-17T11:21:23.781Z,1.70
2022-10-17T11:24:07.020Z,1.70
2022-10-17T11:26:46.369Z,1.80
2022-10-17T11:29:13.767Z,1.70
2022-10-17T11:31:47.295Z,1.92
2022-10-17T11:34:22.450Z,1.90
2022-10-17T11:36:54.652Z,1.60
2022-10-17T11:39:35.128Z,1.95
2022-10-17T11:42:11.384Z,1.30
2022-10-17T11:44:40.455Z,1.67
2022-10-17T11:47:38.135Z,2.15
2022-10-17T11:53:16.076Z,1.75
2022-10-17T11:55:44.271Z,1.77
2022-10-17T11:58:47.476Z,1.92
2022-10-17T12:01:43.398Z,1.73
2022-10-17T12:04:29.014Z,1.80
2022-10-17T12:07:17.486Z,2.35
2022-10-17T12:10:13.872Z,1.70
2022-10-17T12:12:40.632Z,1.70
2022-10-17T12:15:13.471Z,1.77
2022-10-17T12:17:45.925Z,1.73
2022-10-17T12:20:24.625Z,1.98
2022-10-17T12:23:04.444Z,1.63
2022-10-17T12:25:34.218Z,1.67
2022-10-17T12:28:11.244Z,1.50
2022-10-17T12:30:59.931Z,2.35
2022-10-17T12:33:50.659Z,1.80
2022-10-17T12:36:17.359Z,2.05
2022-10-17T12:38:49.874Z,2.30
2022-10-17T12:41:37.364Z,1.67
2022-10-17T12:44:13.379Z,2.33
2022-10-17T12:47:07.928Z,2.33
2022-10-17T12:49:52.012Z,2.50
2022-10-17T12:52:35.211Z,2.80
2022-10-17T12:55:12.226Z,2.80
2022-10-17T12:57:47.634Z,2.05
2022-10-17T13:00:20.692Z,2.08
2022-10-17T13:02:49.121Z,2.00
2022-10-17T13:05:40.308Z,3.00
2022-10-17T13:08:13.809Z,3.08
2022-10-17T13:10:43.202Z,2.38
2022-10-17T13:13:22.641Z,2.67
2022-10-17T13:15:55.221Z,2.50
2022-10-17T13:18:24.630Z,2.60
2022-10-17T13:21:14.048Z,2.50
2022-10-17T13:23:40.849Z,2.42
2022-10-17T13:26:10.424Z,2.70
2022-10-17T13:28:39.595Z,2.70
2022-10-17T13:31:07.667Z,2.70
2022-10-17T13:33:40.526Z,2.33
2022-10-17T13:36:15.633Z,2.28
2022-10-17T13:38:43.279Z,2.25
2022-10-17T13:41:35.711Z,2.67
2022-10-17T13:44:07.562Z,2.65
2022-10-17T13:46:38.334Z,2.17
2022-10-17T13:49:25.859Z,2.33
2022-10-17T13:51:56.064Z,2.38
2022-10-17T13:54:25.538Z,2.58
2022-10-17T13:56:59.622Z,2.55
2022-10-17T13:59:40.283Z,2.40
2022-10-17T14:02:24.041Z,2.20
2022-10-17T14:05:23.272Z,2.50
2022-10-17T14:08:13.367Z,2.67
2022-10-17T14:10:43.801Z,2.38
2022-10-17T14:13:26.529Z,2.08
2022-10-17T14:15:55.523Z,2.50
2022-10-17T14:18:29.085Z,2.33
2022-10-17T14:21:34.304Z,2.45
2022-10-17T14:23:48.315Z,2.50
2022-10-17T14:26:18.215Z,2.25
2022-10-17T14:28:51.383Z,2.20
2022-10-17T14:31:25.653Z,2.45
2022-10-17T14:33:54.191Z,2.47
2022-10-17T14:36:33.219Z,2.50
2022-10-17T14:39:01.842Z,2.20
2022-10-17T14:41:47.690Z,2.63
2022-10-17T14:44:23.421Z,2.47
2022-10-17T14:46:54.823Z,2.92
2022-10-17T14:49:39.126Z,2.55
2022-10-17T14:52:17.969Z,2.28
2022-10-17T14:54:47.653Z,2.15
2022-10-17T14:57:22.966Z,2.13
2022-10-17T14:59:54.703Z,2.10
2022-10-17T15:02:23.817Z,1.92
2022-10-17T15:04:50.548Z,2.63
2022-10-17T15:07:18.360Z,2.13
2022-10-17T15:09:47.262Z,2.30
2022-10-17T15:12:16.864Z,2.80
2022-10-17T15:14:44.792Z,2.38
2022-10-17T15:17:22.273Z,2.35
2022-10-17T15:19:50.735Z,2.92
2022-10-17T15:22:18.220Z,2.40
2022-10-17T15:24:48.061Z,2.55
2022-10-17T15:27:24.610Z,2.30
2022-10-17T15:29:52.786Z,2.17
2022-10-17T15:32:19.523Z,2.35
2022-10-17T15:34:46.577Z,2.10
2022-10-17T15:37:20.726Z,1.90
2022-10-17T15:39:54.093Z,2.47
2022-10-17T15:42:30.288Z,2.50
2022-10-17T15:44:57.718Z,2.20
2022-10-17T15:47:33.878Z,2.53
2022-10-17T15:50:01.791Z,2.55
2022-10-17T15:52:28.552Z,2.50
2022-10-17T15:54:57.333Z,3.28
2022-10-17T15:57:29.389Z,2.50
2022-10-17T15:59:58.663Z,2.78
2022-10-17T16:02:25.775Z,2.47
2022-10-17T16:04:53.299Z,2.90
2022-10-17T16:07:20.845Z,2.35
2022-10-17T16:09:47.952Z,2.58
2022-10-17T16:14:53.490Z,2.60
2022-10-17T16:17:20.173Z,3.53
2022-10-17T16:19:46.914Z,2.25
2022-10-17T16:22:36.535Z,2.63
2022-10-17T16:25:19.229Z,3.13
2022-10-17T16:27:47.627Z,2.75
2022-10-17T16:30:15.415Z,2.25
2022-10-17T16:32:42.194Z,2.90
2022-10-17T16:35:11.322Z,2.55
2022-10-17T16:37:37.978Z,2.53
2022-10-17T16:40:05.090Z,2.60
2022-10-17T16:42:31.986Z,2.50
2022-10-17T16:44:59.039Z,2.78
2022-10-17T16:47:25.715Z,2.70
2022-10-17T16:49:52.576Z,3.00
2022-10-17T16:52:19.256Z,2.47
2022-10-17T16:54:46.005Z,3.05
2022-10-17T16:57:12.896Z,3.33
2022-10-17T16:59:39.573Z,3.22
2022-10-17T17:02:06.575Z,3.80
2022-10-17T17:04:33.264Z,3.53
2022-10-17T17:06:59.957Z,3.45
2022-10-17T17:09:26.682Z,3.53
2022-10-17T17:11:53.390Z,3.70
2022-10-17T17:14:20.138Z,3.95
2022-10-17T17:16:47.022Z,3.80
2022-10-17T17:19:17.103Z,3.17
2022-10-17T17:21:49.909Z,3.42
2022-10-17T17:24:17.905Z,2.90
2022-10-17T17:26:45.211Z,3.10
2022-10-17T17:29:12.197Z,2.58
2022-10-17T17:31:39.295Z,4.38
2022-10-17T17:34:06.339Z,3.47
2022-10-17T17:36:35.333Z,4.43
2022-10-17T17:39:05.028Z,3.90
2022-10-17T17:41:32.420Z,3.88
2022-10-17T17:44:00.403Z,2.95
2022-10-17T17:46:27.290Z,3.33
2022-10-17T17:48:55.272Z,2.70
2022-10-17T17:51:29.059Z,3.38
2022-10-17T17:53:56.748Z,3.10
2022-10-17T17:56:27.955Z,3.08
2022-10-17T17:58:57.404Z,3.10
2022-10-17T18:01:27.714Z,3.40
2022-10-17T18:03:55.782Z,2.70
2022-10-17T18:06:23.530Z,2.90
2022-10-17T18:08:53.165Z,3.47
2022-10-17T18:11:22.018Z,3.80
2022-10-17T18:13:54.606Z,3.22
2022-10-17T18:16:21.366Z,4.00
2022-10-17T18:18:48.125Z,5.13
2022-10-17T18:21:14.936Z,3.70
2022-10-17T18:23:44.071Z,4.00
2022-10-17T18:26:11.154Z,4.32
2022-10-17T18:28:39.278Z,4.20
2022-10-17T18:31:13.182Z,3.40
2022-10-17T18:33:40.496Z,4.60
2022-10-17T18:36:10.505Z,4.82
2022-10-17T18:38:37.516Z,4.10
2022-10-17T18:41:09.613Z,5.03
2022-10-17T18:43:38.117Z,4.43
2022-10-17T18:46:10.941Z,4.60
2022-10-17T18:48:42.597Z,4.20
2022-10-17T18:51:09.309Z,4.03
2022-10-17T18:53:39.851Z,4.30
2022-10-17T18:56:07.188Z,4.50
2022-10-17T18:58:33.896Z,4.25
2022-10-17T19:01:07.666Z,4.32
2022-10-17T19:03:34.369Z,4.03
2022-10-17T19:06:03.110Z,4.38
2022-10-17T19:08:30.346Z,3.75
2022-10-17T19:10:57.088Z,3.97
2022-10-17T19:13:23.777Z,5.40
2022-10-17T19:15:50.507Z,4.22
2022-10-17T19:18:17.299Z,4.63
2022-10-17T19:20:46.424Z,4.93
2022-10-17T19:23:13.231Z,4.55
2022-10-17T19:25:39.954Z,4.65
2022-10-17T19:28:06.653Z,4.40
2022-10-17T19:30:33.360Z,4.95
2022-10-17T19:36:41.292Z,5.28
2022-10-17T19:39:12.527Z,5.43
2022-10-17T19:41:47.331Z,5.53
2022-10-17T19:44:14.330Z,5.55
2022-10-17T19:46:41.338Z,5.57
2022-10-17T19:49:08.056Z,5.13
2022-10-17T19:51:37.199Z,5.45
2022-10-17T19:54:03.966Z,5.93
2022-10-17T19:56:33.427Z,6.18
2022-10-17T19:59:00.371Z,5.93
2022-10-17T20:01:30.519Z,10.02
2022-10-17T20:03:57.437Z,5.78
2022-10-17T20:06:24.121Z,5.35
2022-10-17T20:08:51.066Z,5.03
2022-10-17T20:11:21.456Z,4.82
2022-10-17T20:13:48.656Z,5.53
2022-10-17T20:16:20.448Z,5.45
2022-10-17T20:18:48.440Z,6.80
2022-10-17T20:21:17.990Z,5.47
2022-10-17T20:23:47.343Z,5.45
2022-10-17T20:29:08.863Z,5.85
2022-10-17T20:31:35.848Z,5.30
2022-10-17T20:34:03.376Z,6.00
2022-10-17T20:36:30.210Z,5.55
2022-10-17T20:38:58.398Z,5.72
2022-10-17T20:41:26.035Z,5.40
2022-10-17T20:43:54.387Z,5.40
2022-10-17T20:46:36.339Z,5.40
2022-10-17T20:49:05.584Z,5.72
2022-10-17T20:51:32.466Z,5.50
2022-10-17T20:53:59.259Z,5.80
2022-10-17T20:56:28.900Z,6.07
2022-10-17T20:58:58.752Z,5.95
2022-10-17T21:01:36.517Z,5.53
2022-10-17T21:07:01.095Z,5.40
2022-10-17T21:09:28.035Z,6.13
2022-10-17T21:11:55.861Z,6.00
2022-10-17T21:14:24.251Z,5.60
2022-10-17T21:16:52.194Z,5.70
2022-10-17T21:19:19.144Z,5.38
2022-10-17T21:21:46.653Z,5.68
2022-10-17T21:24:17.788Z,5.53
2022-10-17T21:26:45.662Z,5.60
2022-10-17T21:29:13.465Z,4.90
2022-10-17T21:31:42.580Z,6.45
2022-10-17T21:34:14.832Z,6.55
2022-10-17T21:36:41.892Z,6.50
2022-10-17T21:39:09.936Z,6.28
2022-10-17T21:41:37.268Z,5.90
2022-10-17T21:44:07.446Z,5.82
2022-10-17T21:46:34.449Z,5.95
2022-10-17T21:49:01.471Z,5.88
2022-10-17T21:51:28.524Z,6.43
2022-10-17T21:53:57.035Z,6.40
2022-10-17T21:56:30.587Z,5.40
2022-10-17T21:58:58.628Z,5.88
2022-10-17T22:01:31.736Z,6.00
2022-10-17T22:04:01.180Z,5.63
2022-10-17T22:06:39.753Z,6.15
2022-10-17T22:09:11.876Z,6.25
2022-10-17T22:11:38.643Z,5.70
2022-10-17T22:14:14.550Z,5.47
2022-10-17T22:16:41.944Z,5.90
2022-10-17T22:19:09.154Z,5.82
2022-10-17T22:21:36.826Z,6.13
2022-10-17T22:24:06.844Z,5.70
2022-10-17T22:26:35.669Z,6.28
2022-10-17T22:29:03.644Z,5.45
2022-10-17T22:31:30.569Z,6.22
2022-10-17T22:33:57.299Z,5.55
2022-10-17T22:36:24.067Z,6.07
2022-10-17T22:38:50.847Z,6.30
2022-10-17T22:41:17.776Z,5.93
2022-10-17T22:43:44.450Z,6.05
2022-10-17T22:46:13.378Z,6.72
2022-10-17T22:48:40.721Z,6.32
2022-10-17T22:51:08.397Z,6.20
2022-10-17T22:53:37.167Z,6.10
2022-10-17T22:56:07.300Z,7.03
2022-10-17T22:58:35.250Z,6.25
2022-10-17T23:01:02.879Z,6.38
2022-10-17T23:03:31.361Z,6.35
2022-10-17T23:05:58.434Z,6.45
2022-10-17T23:08:26.010Z,6.63
2022-10-17T23:10:53.401Z,7.07
2022-10-17T23:13:21.828Z,5.82
2022-10-17T23:15:53.133Z,7.72
2022-10-17T23:18:20.861Z,6.75
2022-10-17T23:20:48.347Z,6.80
2022-10-17T23:23:15.593Z,6.97
2022-10-17T23:25:42.653Z,7.30
2022-10-17T23:28:10.077Z,7.00
2022-10-17T23:30:37.412Z,7.50
2022-10-17T23:33:05.286Z,7.18
2022-10-17T23:35:32.579Z,7.95
2022-10-17T23:37:59.383Z,7.28
2022-10-17T23:40:26.175Z,7.72
2022-10-17T23:42:52.876Z,7.32
2022-10-17T23:45:19.772Z,8.57
2022-10-17T23:47:46.664Z,7.78
2022-10-17T23:50:13.486Z,8.93
2022-10-17T23:52:40.279Z,7.63
2022-10-17T23:55:07.860Z,8.32
2022-10-17T23:57:34.714Z,8.30
